Aérodrome :
LOGIN :

S'inscrire | Disclaimer

   EN    FR    IT 

 










Légende :    VFR   VFR Marginal   IFR   IFR Intensif   IFR Très Intensif
Visi : 
Plafond : 
>= 8 km
>= 3000ft
5 à 8 km
1000 à 3000 ft
1500m à 5 km
500 à 1000 ft
800 à 1500m
200 à 500 ft
< 800m
< 200 ft
Symboles :   Orages  Brouillard  Fortes neiges  Fortes précipitations  Vent > 20 kt
SIGMETs :   Divers  Orages  Givrage  Turbulence  Onde Orograph.  Cendres Volcan.







- Altitude de l'aérodrome : 74 ft
- Code IATA : NDZ


ETMN - Cuxhaven Nordholz Sea AB

DERNIER METAR :
  • 221820Z 31018KT 8000 -SHRA FEW009 BKN015 12/09 Q1022 RESHRA WHT

METARs EXPIRÉS :
  • 221734Z 31019KT 8000 FEW009 BKN015 12/10 Q1021 RESHRA WHT
  • 221720Z 32018KT 6000 SHRA FEW009 FEW012TCU BKN015 12/09 Q1022 WHT
  • 221647Z 31018KT 6000 -SHRA FEW009 BKN020 13/09 Q1022 WHT
  • 221620Z 32020KT 9999 -SHRA SCT014 BKN025 13/09 Q1021 BLU
  • 221551Z 31019G30KT 9999 SCT018 BKN050 14/08 Q1021 BLU

TAF AMD TAF ETMN
Valide du 22 à 11h jusqu'au 22 à 20h UTC


221334Z 2211/2220 33018G28KT 9999 NSW SCT025 SCT050
TEMPO 2211/2220 34020G32KT 8000 -SHRA FEW020 BKN025TCU CANCEL 1345
Pas de NOTAMs connus pour ce terrain.



MET'MAP, la Météo Aéronautique d'un coup d'oeil ! - Copyright ORBIFLY Décembre 2007 - Disclaimer

ORBIFLY MET'MAP TEAM :

Programmation & Développement : Alexandra Zaïnal
Conception & Développement : Baudouin d'Aumeries
Co-Programmation & Développement : Marc-Olivier Méhu
Soutien technique & logistique : Manuel Goepfert

Contact : metmap@orbifly.com




SOURCES & CREDITS :

   NOAA